Farnam, Nebraska
Current Conditions -  °F | °C
As of 4:15 AM on Sunday 25 Jan 2015 (Local Time) from KLXN Reporting Station
Scattered Clouds Scattered Clouds  
Wind Chill: 29°   Ceiling: Unl
Heat Index: 39°   Visibility: 10mi
Dew Point: 30°   Wind: 23mph
Humidity: 70%   Direction: 320°NW
Pressure: 29.93"   Gusts: 31mph
Location:  40.71°N, 100.21°W
Report Text: KLXN 251015Z AUTO 32020G27KT 10SM SCT035 04/M01 A2993 RMK AO2 T00401011
Loading
Personal Weather Stations






























Interactive Weather Map New forecast layout! Learn more

10-Day Weather Forecast

Advertisements
Track Severe Weather on mobile